DEBGN EDHL-EDXH
Flight info
| Callsign | DEBGN |
|---|---|
| Flight time | 0h 47m |
| Altitude | 4000 |
| Route | VFR FLIGHT |
| Aircraft | BE36/L-VGD/A |
Departure
| Time | 2026-04-25 18:03 |
|---|---|
| Airport | Lübeck Blankensee Airport (EDHL) |
Arrival
| Time | 2026-04-25 18:50 |
|---|---|
| Airport | Helgoland-Düne Airport (EDXH) |
| Time | Latitude | Longitude | Altitude | Speed | Heading |
|---|---|---|---|---|---|
| 2026-04-25 17:49 | 53.80482 | 10.70312 | 53 ft | 0 kts | 325° |
| 2026-04-25 17:58 | 53.80483 | 10.70310 | 53 ft | 2 kts | 331° |
| 2026-04-25 17:59 | 53.80501 | 10.70361 | 52 ft | 4 kts | 110° |
| 2026-04-25 17:59 | 53.80464 | 10.70451 | 52 ft | 13 kts | 88° |
| 2026-04-25 17:59 | 53.80501 | 10.70686 | 53 ft | 27 kts | 72° |
| 2026-04-25 17:59 | 53.80569 | 10.71045 | 56 ft | 31 kts | 73° |
| 2026-04-25 18:00 | 53.80593 | 10.71176 | 54 ft | 10 kts | 73° |
| 2026-04-25 18:00 | 53.80649 | 10.71457 | 52 ft | 22 kts | 70° |
| 2026-04-25 18:00 | 53.80637 | 10.71723 | 56 ft | 23 kts | 113° |
| 2026-04-25 18:00 | 53.80616 | 10.71815 | 53 ft | 0 kts | 111° |
| 2026-04-25 18:02 | 53.80605 | 10.71861 | 56 ft | 14 kts | 109° |
| 2026-04-25 18:02 | 53.80549 | 10.71962 | 53 ft | 8 kts | 199° |
| 2026-04-25 18:02 | 53.80529 | 10.71881 | 52 ft | 34 kts | 254° |
| 2026-04-25 18:02 | 53.80366 | 10.71048 | 65 ft | 106 kts | 251° |
| 2026-04-25 18:03 | 53.80083 | 10.69844 | 524 ft | 114 kts | 249° |
| 2026-04-25 18:03 | 53.79971 | 10.68669 | 1278 ft | 92 kts | 291° |
| 2026-04-25 18:03 | 53.80293 | 10.67648 | 1744 ft | 107 kts | 300° |
| 2026-04-25 18:03 | 53.80621 | 10.66488 | 2310 ft | 103 kts | 288° |
| 2026-04-25 18:04 | 53.80948 | 10.65537 | 2956 ft | 96 kts | 311° |
| 2026-04-25 18:04 | 53.81347 | 10.64412 | 2830 ft | 122 kts | 292° |
| 2026-04-25 18:04 | 53.81496 | 10.63005 | 2684 ft | 122 kts | 283° |
| 2026-04-25 18:04 | 53.81599 | 10.61583 | 2435 ft | 119 kts | 286° |
| 2026-04-25 18:05 | 53.82007 | 10.60426 | 2238 ft | 114 kts | 306° |
| 2026-04-25 18:05 | 53.82473 | 10.59425 | 2181 ft | 106 kts | 303° |
| 2026-04-25 18:05 | 53.82765 | 10.58260 | 2115 ft | 109 kts | 289° |
| 2026-04-25 18:05 | 53.82955 | 10.57005 | 2057 ft | 110 kts | 287° |
| 2026-04-25 18:06 | 53.83131 | 10.55734 | 2003 ft | 111 kts | 286° |
| 2026-04-25 18:06 | 53.83309 | 10.54454 | 1938 ft | 112 kts | 286° |
| 2026-04-25 18:06 | 53.83472 | 10.53174 | 1919 ft | 110 kts | 285° |
| 2026-04-25 18:06 | 53.83629 | 10.51917 | 1913 ft | 108 kts | 285° |
| 2026-04-25 18:07 | 53.83784 | 10.50678 | 1963 ft | 104 kts | 286° |
| 2026-04-25 18:07 | 53.83923 | 10.49549 | 2209 ft | 92 kts | 287° |
| 2026-04-25 18:07 | 53.84049 | 10.48535 | 2454 ft | 84 kts | 289° |
| 2026-04-25 18:07 | 53.84171 | 10.47567 | 2687 ft | 90 kts | 289° |
| 2026-04-25 18:08 | 53.84319 | 10.46463 | 2948 ft | 101 kts | 291° |
| 2026-04-25 18:08 | 53.84489 | 10.45258 | 3227 ft | 108 kts | 292° |
| 2026-04-25 18:08 | 53.84661 | 10.44011 | 3505 ft | 108 kts | 292° |
| 2026-04-25 18:08 | 53.84837 | 10.42724 | 3365 ft | 119 kts | 291° |
| 2026-04-25 18:09 | 53.85033 | 10.41302 | 3116 ft | 128 kts | 291° |
| 2026-04-25 18:09 | 53.85215 | 10.39854 | 3034 ft | 123 kts | 289° |
| 2026-04-25 18:09 | 53.85402 | 10.38395 | 2770 ft | 130 kts | 288° |
| 2026-04-25 18:09 | 53.85468 | 10.37887 | 2682 ft | 131 kts | 287° |
| 2026-04-25 18:10 | 53.85780 | 10.35438 | 2556 ft | 122 kts | 287° |
| 2026-04-25 18:10 | 53.85955 | 10.34064 | 2544 ft | 117 kts | 287° |
| 2026-04-25 18:10 | 53.86124 | 10.32738 | 2532 ft | 113 kts | 287° |
| 2026-04-25 18:10 | 53.86291 | 10.31446 | 2526 ft | 111 kts | 288° |
| 2026-04-25 18:11 | 53.86456 | 10.30181 | 2528 ft | 109 kts | 288° |
| 2026-04-25 18:11 | 53.86615 | 10.28942 | 2525 ft | 107 kts | 288° |
| 2026-04-25 18:11 | 53.86773 | 10.27718 | 2539 ft | 106 kts | 288° |
| 2026-04-25 18:11 | 53.86936 | 10.26482 | 2538 ft | 106 kts | 288° |
| 2026-04-25 18:12 | 53.87094 | 10.25267 | 2543 ft | 106 kts | 288° |
| 2026-04-25 18:12 | 53.87251 | 10.24052 | 2538 ft | 105 kts | 288° |
| 2026-04-25 18:12 | 53.87409 | 10.22838 | 2546 ft | 106 kts | 288° |
| 2026-04-25 18:12 | 53.87567 | 10.21620 | 2550 ft | 106 kts | 288° |
| 2026-04-25 18:13 | 53.87723 | 10.20410 | 2559 ft | 107 kts | 288° |
| 2026-04-25 18:13 | 53.87885 | 10.19164 | 2562 ft | 107 kts | 288° |
| 2026-04-25 18:13 | 53.88041 | 10.17950 | 2563 ft | 107 kts | 288° |
| 2026-04-25 18:14 | 53.88360 | 10.15468 | 2561 ft | 108 kts | 288° |
| 2026-04-25 18:14 | 53.88519 | 10.14236 | 2559 ft | 111 kts | 288° |
| 2026-04-25 18:14 | 53.88693 | 10.12882 | 2563 ft | 123 kts | 288° |
| 2026-04-25 18:14 | 53.88883 | 10.11427 | 2565 ft | 129 kts | 288° |
| 2026-04-25 18:15 | 53.89078 | 10.09917 | 2568 ft | 133 kts | 288° |
| 2026-04-25 18:15 | 53.89275 | 10.08371 | 2569 ft | 136 kts | 288° |
| 2026-04-25 18:15 | 53.89475 | 10.06791 | 2572 ft | 138 kts | 287° |
| 2026-04-25 18:15 | 53.89678 | 10.05184 | 2571 ft | 140 kts | 287° |
| 2026-04-25 18:16 | 53.89883 | 10.03569 | 2570 ft | 140 kts | 287° |
| 2026-04-25 18:16 | 53.90089 | 10.01951 | 2569 ft | 140 kts | 287° |
| 2026-04-25 18:16 | 53.90498 | 9.98723 | 2572 ft | 140 kts | 287° |
| 2026-04-25 18:17 | 53.90703 | 9.97105 | 2569 ft | 140 kts | 287° |
| 2026-04-25 18:17 | 53.90911 | 9.95463 | 2571 ft | 141 kts | 287° |
| 2026-04-25 18:17 | 53.91113 | 9.93863 | 2563 ft | 140 kts | 287° |
| 2026-04-25 18:17 | 53.91318 | 9.92245 | 2562 ft | 140 kts | 287° |
| 2026-04-25 18:18 | 53.91522 | 9.90631 | 2561 ft | 140 kts | 287° |
| 2026-04-25 18:18 | 53.91725 | 9.89012 | 2554 ft | 140 kts | 287° |
| 2026-04-25 18:18 | 53.91932 | 9.87372 | 2554 ft | 140 kts | 287° |
| 2026-04-25 18:18 | 53.92131 | 9.85774 | 2553 ft | 140 kts | 287° |
| 2026-04-25 18:19 | 53.92337 | 9.84133 | 2560 ft | 140 kts | 287° |
| 2026-04-25 18:19 | 53.92538 | 9.82531 | 2568 ft | 141 kts | 287° |
| 2026-04-25 18:19 | 53.92745 | 9.80878 | 2569 ft | 142 kts | 287° |
| 2026-04-25 18:19 | 53.92948 | 9.79264 | 2565 ft | 142 kts | 287° |
| 2026-04-25 18:20 | 53.93155 | 9.77607 | 2556 ft | 142 kts | 287° |
| 2026-04-25 18:20 | 53.93359 | 9.75976 | 2554 ft | 141 kts | 287° |
| 2026-04-25 18:20 | 53.93561 | 9.74348 | 2557 ft | 141 kts | 287° |
| 2026-04-25 18:20 | 53.93761 | 9.72742 | 2556 ft | 141 kts | 287° |
| 2026-04-25 18:21 | 53.93963 | 9.71114 | 2556 ft | 141 kts | 287° |
| 2026-04-25 18:21 | 53.94166 | 9.69486 | 2555 ft | 141 kts | 287° |
| 2026-04-25 18:21 | 53.94368 | 9.67859 | 2560 ft | 141 kts | 288° |
| 2026-04-25 18:21 | 53.94572 | 9.66229 | 2570 ft | 142 kts | 287° |
| 2026-04-25 18:22 | 53.94776 | 9.64592 | 2574 ft | 142 kts | 287° |
| 2026-04-25 18:22 | 53.94845 | 9.64038 | 2574 ft | 142 kts | 287° |
| 2026-04-25 18:22 | 53.95183 | 9.61301 | 2572 ft | 143 kts | 287° |
| 2026-04-25 18:22 | 53.95387 | 9.59651 | 2572 ft | 143 kts | 287° |
| 2026-04-25 18:23 | 53.95590 | 9.58004 | 2576 ft | 142 kts | 287° |
| 2026-04-25 18:23 | 53.95791 | 9.56363 | 2565 ft | 142 kts | 287° |
| 2026-04-25 18:23 | 53.95991 | 9.54725 | 2556 ft | 141 kts | 288° |
| 2026-04-25 18:23 | 53.96193 | 9.53090 | 2556 ft | 141 kts | 288° |
| 2026-04-25 18:24 | 53.96393 | 9.51455 | 2555 ft | 141 kts | 287° |
| 2026-04-25 18:24 | 53.96594 | 9.49825 | 2557 ft | 141 kts | 287° |
| 2026-04-25 18:24 | 53.96793 | 9.48196 | 2558 ft | 141 kts | 288° |
| 2026-04-25 18:24 | 53.96994 | 9.46558 | 2568 ft | 142 kts | 288° |
| 2026-04-25 18:25 | 53.97196 | 9.44911 | 2572 ft | 143 kts | 288° |
| 2026-04-25 18:25 | 53.97397 | 9.43262 | 2575 ft | 143 kts | 288° |
| 2026-04-25 18:25 | 53.97599 | 9.41608 | 2577 ft | 143 kts | 288° |
| 2026-04-25 18:25 | 53.97801 | 9.39951 | 2580 ft | 144 kts | 288° |
| 2026-04-25 18:26 | 53.98004 | 9.38286 | 2578 ft | 144 kts | 288° |
| 2026-04-25 18:26 | 53.98205 | 9.36621 | 2568 ft | 144 kts | 288° |
| 2026-04-25 18:26 | 53.98408 | 9.34948 | 2568 ft | 145 kts | 288° |
| 2026-04-25 18:26 | 53.98612 | 9.33270 | 2567 ft | 145 kts | 288° |
| 2026-04-25 18:27 | 53.98814 | 9.31590 | 2557 ft | 145 kts | 288° |
| 2026-04-25 18:27 | 53.99016 | 9.29918 | 2556 ft | 144 kts | 288° |
| 2026-04-25 18:27 | 53.99217 | 9.28251 | 2570 ft | 144 kts | 288° |
| 2026-04-25 18:27 | 53.99353 | 9.27122 | 2571 ft | 144 kts | 288° |
| 2026-04-25 18:28 | 53.99552 | 9.25455 | 2571 ft | 144 kts | 288° |
| 2026-04-25 18:28 | 53.99749 | 9.23797 | 2562 ft | 143 kts | 288° |
| 2026-04-25 18:28 | 53.99949 | 9.22146 | 2566 ft | 143 kts | 288° |
| 2026-04-25 18:29 | 54.00349 | 9.18838 | 2574 ft | 143 kts | 288° |
| 2026-04-25 18:29 | 54.00545 | 9.17175 | 2569 ft | 143 kts | 287° |
| 2026-04-25 18:30 | 54.01133 | 9.12180 | 2571 ft | 144 kts | 288° |
| 2026-04-25 18:30 | 54.01332 | 9.10508 | 2577 ft | 144 kts | 288° |
| 2026-04-25 18:30 | 54.01529 | 9.08834 | 2571 ft | 144 kts | 288° |
| 2026-04-25 18:30 | 54.01725 | 9.07164 | 2577 ft | 144 kts | 288° |
| 2026-04-25 18:31 | 54.01921 | 9.05499 | 2580 ft | 143 kts | 288° |
| 2026-04-25 18:31 | 54.02118 | 9.03834 | 2583 ft | 144 kts | 288° |
| 2026-04-25 18:31 | 54.02314 | 9.02168 | 2583 ft | 144 kts | 288° |
| 2026-04-25 18:31 | 54.02509 | 9.00501 | 2581 ft | 144 kts | 288° |
| 2026-04-25 18:32 | 54.02706 | 8.98831 | 2577 ft | 144 kts | 288° |
| 2026-04-25 18:32 | 54.02900 | 8.97154 | 2564 ft | 145 kts | 289° |
| 2026-04-25 18:32 | 54.03097 | 8.95470 | 2570 ft | 145 kts | 289° |
| 2026-04-25 18:32 | 54.03297 | 8.93785 | 2578 ft | 146 kts | 289° |
| 2026-04-25 18:33 | 54.03495 | 8.92094 | 2581 ft | 146 kts | 289° |
| 2026-04-25 18:33 | 54.03694 | 8.90401 | 2582 ft | 146 kts | 289° |
| 2026-04-25 18:33 | 54.03892 | 8.88703 | 2583 ft | 146 kts | 289° |
| 2026-04-25 18:33 | 54.04090 | 8.87003 | 2592 ft | 147 kts | 289° |
| 2026-04-25 18:34 | 54.04288 | 8.85301 | 2596 ft | 147 kts | 288° |
| 2026-04-25 18:34 | 54.04486 | 8.83599 | 2594 ft | 147 kts | 288° |
| 2026-04-25 18:34 | 54.04685 | 8.81888 | 2538 ft | 148 kts | 288° |
| 2026-04-25 18:34 | 54.04883 | 8.80177 | 2510 ft | 147 kts | 288° |
| 2026-04-25 18:35 | 54.05077 | 8.78483 | 2499 ft | 145 kts | 288° |
| 2026-04-25 18:35 | 54.05270 | 8.76799 | 2494 ft | 145 kts | 288° |
| 2026-04-25 18:35 | 54.05465 | 8.75124 | 2493 ft | 144 kts | 288° |
| 2026-04-25 18:35 | 54.05662 | 8.73462 | 2493 ft | 143 kts | 288° |
| 2026-04-25 18:36 | 54.05862 | 8.71763 | 2507 ft | 143 kts | 288° |
| 2026-04-25 18:36 | 54.06049 | 8.70135 | 2513 ft | 144 kts | 288° |
| 2026-04-25 18:36 | 54.06240 | 8.68459 | 2513 ft | 144 kts | 288° |
| 2026-04-25 18:36 | 54.06432 | 8.66785 | 2512 ft | 144 kts | 288° |
| 2026-04-25 18:37 | 54.06623 | 8.65118 | 2506 ft | 143 kts | 288° |
| 2026-04-25 18:37 | 54.06813 | 8.63452 | 2506 ft | 143 kts | 288° |
| 2026-04-25 18:37 | 54.07004 | 8.61783 | 2508 ft | 144 kts | 288° |
| 2026-04-25 18:37 | 54.07195 | 8.60108 | 2510 ft | 144 kts | 288° |
| 2026-04-25 18:38 | 54.07386 | 8.58428 | 2512 ft | 145 kts | 288° |
| 2026-04-25 18:38 | 54.07578 | 8.56746 | 2512 ft | 145 kts | 288° |
| 2026-04-25 18:38 | 54.07769 | 8.55061 | 2519 ft | 145 kts | 288° |
| 2026-04-25 18:38 | 54.07961 | 8.53370 | 2520 ft | 146 kts | 288° |
| 2026-04-25 18:39 | 54.08153 | 8.51677 | 2520 ft | 145 kts | 288° |
| 2026-04-25 18:39 | 54.08343 | 8.49992 | 2518 ft | 144 kts | 288° |
| 2026-04-25 18:39 | 54.08533 | 8.48314 | 2518 ft | 144 kts | 288° |
| 2026-04-25 18:39 | 54.08722 | 8.46634 | 2518 ft | 145 kts | 288° |
| 2026-04-25 18:40 | 54.08913 | 8.44936 | 2528 ft | 146 kts | 289° |
| 2026-04-25 18:40 | 54.09106 | 8.43229 | 2527 ft | 147 kts | 289° |
| 2026-04-25 18:40 | 54.09298 | 8.41519 | 2527 ft | 147 kts | 289° |
| 2026-04-25 18:40 | 54.09491 | 8.39806 | 2527 ft | 147 kts | 289° |
| 2026-04-25 18:41 | 54.09684 | 8.38090 | 2532 ft | 148 kts | 289° |
| 2026-04-25 18:41 | 54.09875 | 8.36372 | 2529 ft | 148 kts | 289° |
| 2026-04-25 18:41 | 54.10066 | 8.34653 | 2531 ft | 148 kts | 289° |
| 2026-04-25 18:41 | 54.10265 | 8.32940 | 2538 ft | 147 kts | 289° |
| 2026-04-25 18:42 | 54.10451 | 8.31219 | 2539 ft | 148 kts | 288° |
| 2026-04-25 18:42 | 54.10570 | 8.30077 | 2538 ft | 148 kts | 288° |
| 2026-04-25 18:42 | 54.10828 | 8.27765 | 2538 ft | 148 kts | 289° |
| 2026-04-25 18:42 | 54.11026 | 8.26043 | 2553 ft | 148 kts | 289° |
| 2026-04-25 18:43 | 54.11218 | 8.24341 | 2553 ft | 148 kts | 288° |
| 2026-04-25 18:43 | 54.11411 | 8.22586 | 2551 ft | 149 kts | 288° |
| 2026-04-25 18:43 | 54.11596 | 8.20849 | 2550 ft | 149 kts | 289° |
| 2026-04-25 18:43 | 54.11791 | 8.19115 | 2552 ft | 149 kts | 289° |
| 2026-04-25 18:44 | 54.11984 | 8.17383 | 2549 ft | 149 kts | 289° |
| 2026-04-25 18:44 | 54.12173 | 8.15651 | 2549 ft | 149 kts | 289° |
| 2026-04-25 18:44 | 54.12362 | 8.13920 | 2547 ft | 148 kts | 289° |
| 2026-04-25 18:44 | 54.12553 | 8.12194 | 2542 ft | 148 kts | 288° |
| 2026-04-25 18:45 | 54.12743 | 8.10476 | 2546 ft | 147 kts | 288° |
| 2026-04-25 18:45 | 54.12934 | 8.08738 | 2337 ft | 147 kts | 288° |
| 2026-04-25 18:45 | 54.13112 | 8.07100 | 2075 ft | 136 kts | 288° |
| 2026-04-25 18:45 | 54.13274 | 8.05567 | 1820 ft | 124 kts | 288° |
| 2026-04-25 18:46 | 54.13416 | 8.04219 | 1533 ft | 107 kts | 290° |
| 2026-04-25 18:46 | 54.13550 | 8.03024 | 1249 ft | 99 kts | 291° |
| 2026-04-25 18:46 | 54.13666 | 8.01911 | 1093 ft | 89 kts | 289° |
| 2026-04-25 18:46 | 54.13753 | 8.00901 | 1060 ft | 84 kts | 290° |
| 2026-04-25 18:47 | 54.13844 | 7.99927 | 1047 ft | 87 kts | 290° |
| 2026-04-25 18:47 | 54.13935 | 7.98930 | 1051 ft | 85 kts | 288° |
| 2026-04-25 18:47 | 54.14017 | 7.97955 | 1048 ft | 82 kts | 291° |
| 2026-04-25 18:47 | 54.14194 | 7.97070 | 1049 ft | 76 kts | 305° |
| 2026-04-25 18:48 | 54.14510 | 7.96356 | 998 ft | 77 kts | 317° |
| 2026-04-25 18:48 | 54.14930 | 7.95737 | 864 ft | 82 kts | 322° |
| 2026-04-25 18:48 | 54.15391 | 7.95129 | 712 ft | 85 kts | 322° |
| 2026-04-25 18:48 | 54.15869 | 7.94525 | 578 ft | 86 kts | 323° |
| 2026-04-25 18:49 | 54.16398 | 7.93900 | 475 ft | 83 kts | 323° |
| 2026-04-25 18:49 | 54.16829 | 7.93391 | 365 ft | 85 kts | 326° |
| 2026-04-25 18:49 | 54.17333 | 7.92834 | 227 ft | 86 kts | 329° |
| 2026-04-25 18:49 | 54.17811 | 7.92288 | 122 ft | 79 kts | 323° |
| 2026-04-25 18:50 | 54.18252 | 7.91760 | 22 ft | 74 kts | 318° |
| 2026-04-25 18:50 | 54.18574 | 7.91393 | 4 ft | 33 kts | 323° |
| 2026-04-25 18:50 | 54.18623 | 7.91308 | 7 ft | 10 kts | 225° |
| 2026-04-25 18:50 | 54.18619 | 7.91405 | 5 ft | 5 kts | 356° |
| 2026-04-25 18:51 | 54.18641 | 7.91414 | 4 ft | 4 kts | 41° |
| 2026-04-25 18:51 | 54.18647 | 7.91425 | 4 ft | 5 kts | 49° |
| 2026-04-25 18:51 | 54.18654 | 7.91467 | 4 ft | 0 kts | 143° |